New Milford, Connecticut
Current Conditions -  °F | °C
As of 11:53 AM on Tuesday 21 Oct 2014 (Local Time) from KDXR Reporting Station
Scattered Clouds Scattered Clouds  
Wind Chill: 61°   Ceiling: Unl
Heat Index: 61°   Visibility: 10mi
Dew Point: 30°   Wind: 0mph
Humidity: 31%   Direction: NA
Pressure: 29.91"   Gusts: NA
Location:  41.58°N, 73.41°W
Report Text: KDXR 211553Z 00000KT 10SM FEW034 SCT060 SCT110 16/M01 A2991 RMK AO2 SLP127 T01611011
Loading
Personal Weather Stations






























Interactive Weather Map
Tropical Storm Tracking
New forecast layout! Learn more

10-Day Weather Forecast

Advertisements
Track Severe Weather on mobile